createdAt,value
2018-01-01T00:00:21.157Z,73.33
2018-01-01T00:02:48.624Z,73.42
2018-01-01T00:05:16.107Z,73.15
2018-01-01T00:07:43.729Z,72.99
2018-01-01T00:10:11.212Z,72.31
2018-01-01T00:12:38.680Z,71.66
2018-01-01T00:15:06.166Z,70.79
2018-01-01T00:17:33.639Z,70.66
2018-01-01T00:20:01.104Z,70.08
2018-01-01T00:22:28.604Z,69.36
2018-01-01T00:24:56.068Z,69.96
2018-01-01T00:27:23.694Z,69.83
2018-01-01T00:29:51.164Z,69.78
2018-01-01T00:32:18.644Z,69.85
2018-01-01T00:34:46.108Z,69.79
2018-01-01T00:37:14.072Z,69.43
2018-01-01T00:39:41.554Z,69.46
2018-01-01T00:42:09.021Z,69.74
2018-01-01T00:44:36.500Z,70.25
2018-01-01T00:47:04.028Z,70.67
2018-01-01T00:49:31.497Z,71.13
2018-01-01T00:51:58.956Z,71.31
2018-01-01T00:54:26.436Z,71.37
2018-01-01T00:56:53.901Z,71.04
2018-01-01T00:59:21.372Z,70.60
2018-01-01T01:01:48.865Z,70.68
2018-01-01T01:04:16.325Z,70.43
2018-01-01T01:06:43.792Z,70.25
2018-01-01T01:09:11.272Z,69.59
2018-01-01T01:11:38.740Z,68.13
2018-01-01T01:14:06.218Z,68.13
2018-01-01T01:16:33.712Z,68.11
2018-01-01T01:19:01.176Z,67.83
2018-01-01T01:21:28.648Z,67.40
2018-01-01T01:23:56.124Z,66.49
2018-01-01T01:26:23.592Z,66.68
2018-01-01T01:28:51.149Z,66.86
2018-01-01T01:31:18.633Z,67.36
2018-01-01T01:33:46.096Z,68.01
2018-01-01T01:36:13.568Z,68.15
2018-01-01T01:38:41.080Z,68.19
2018-01-01T01:41:08.540Z,68.44
2018-01-01T01:43:36.008Z,68.07
2018-01-01T01:46:03.501Z,67.29
2018-01-01T01:48:42.824Z,67.34
2018-01-01T01:51:10.347Z,67.46
2018-01-01T01:53:37.812Z,68.19
2018-01-01T01:56:05.345Z,68.86
2018-01-01T01:58:32.817Z,69.26
2018-01-01T02:01:00.381Z,69.32
2018-01-01T02:03:27.860Z,69.34
2018-01-01T02:05:55.329Z,69.70
2018-01-01T02:08:22.812Z,68.87
2018-01-01T02:10:50.276Z,69.31
2018-01-01T02:13:17.760Z,69.59
2018-01-01T02:15:45.235Z,69.67
2018-01-01T02:18:12.704Z,70.07
2018-01-01T02:20:40.187Z,70.00
2018-01-01T02:23:07.648Z,69.86
2018-01-01T02:25:35.128Z,69.08
2018-01-01T02:28:02.591Z,69.01
2018-01-01T02:30:30.076Z,68.89
2018-01-01T02:32:57.634Z,68.94
2018-01-01T02:35:25.096Z,69.59
2018-01-01T02:37:52.573Z,69.65
2018-01-01T02:40:20.037Z,70.10
2018-01-01T02:42:47.516Z,70.33
2018-01-01T02:45:14.983Z,70.61
2018-01-01T02:47:42.488Z,71.05
2018-01-01T02:50:09.948Z,70.94
2018-01-01T02:52:37.408Z,70.78
2018-01-01T02:55:04.884Z,70.56
2018-01-01T02:57:32.345Z,70.67
2018-01-01T02:59:59.824Z,70.35
2018-01-01T03:02:27.284Z,70.46
2018-01-01T03:04:54.768Z,70.26
2018-01-01T03:07:22.233Z,69.71
2018-01-01T03:09:49.692Z,69.67
2018-01-01T03:12:17.172Z,69.96
2018-01-01T03:14:44.640Z,69.30
2018-01-01T03:17:12.101Z,68.92
2018-01-01T03:19:39.580Z,68.85
2018-01-01T03:22:07.040Z,69.09
2018-01-01T03:24:34.495Z,69.07
2018-01-01T03:27:01.976Z,68.88
2018-01-01T03:29:29.435Z,69.17
2018-01-01T03:31:56.900Z,69.56
2018-01-01T03:34:24.387Z,69.56
2018-01-01T03:36:51.848Z,69.38
2018-01-01T03:39:19.318Z,69.38
2018-01-01T03:41:46.797Z,69.40
2018-01-01T03:44:14.247Z,69.07
2018-01-01T03:46:41.703Z,69.50
2018-01-01T03:49:09.173Z,69.13
2018-01-01T03:51:36.620Z,68.99
2018-01-01T03:54:04.072Z,69.05
2018-01-01T03:56:31.548Z,68.62
2018-01-01T03:58:59.004Z,68.99
2018-01-01T04:01:26.452Z,69.16
2018-01-01T04:03:53.920Z,69.42
2018-01-01T04:06:21.376Z,69.79
2018-01-01T04:08:48.835Z,69.90
2018-01-01T04:11:16.312Z,69.93
2018-01-01T04:13:43.768Z,70.17
2018-01-01T04:16:11.221Z,70.21
2018-01-01T04:18:38.717Z,70.15
2018-01-01T04:21:06.172Z,70.06
2018-01-01T04:23:33.644Z,69.99
2018-01-01T04:26:01.096Z,70.70
2018-01-01T04:28:28.563Z,71.58
2018-01-01T04:30:56.013Z,72.27
2018-01-01T04:33:23.464Z,72.37
2018-01-01T04:35:50.940Z,73.01
2018-01-01T04:38:18.422Z,73.68
2018-01-01T04:40:45.896Z,75.32
2018-01-01T04:43:13.343Z,75.90
2018-01-01T04:45:40.815Z,77.93
2018-01-01T04:48:08.263Z,79.19
2018-01-01T04:50:35.747Z,79.60
2018-01-01T04:53:03.217Z,81.10
2018-01-01T04:55:30.667Z,79.99
2018-01-01T04:57:58.138Z,81.67
2018-01-01T05:00:25.588Z,82.80
2018-01-01T05:02:53.040Z,82.56
2018-01-01T05:05:20.508Z,82.42
2018-01-01T05:07:47.964Z,81.17
2018-01-01T05:10:15.433Z,82.31
2018-01-01T05:12:42.889Z,83.40
2018-01-01T05:15:10.368Z,80.56
2018-01-01T05:17:37.820Z,81.66
2018-01-01T05:20:05.282Z,80.95
2018-01-01T05:22:32.800Z,81.86
2018-01-01T05:25:00.261Z,82.29
2018-01-01T05:27:27.716Z,80.33
2018-01-01T05:29:55.184Z,81.34
2018-01-01T05:32:22.636Z,79.52
2018-01-01T05:34:50.090Z,79.29
2018-01-01T05:37:17.563Z,78.94
2018-01-01T05:39:45.020Z,78.23
2018-01-01T05:42:12.472Z,77.64
2018-01-01T05:44:39.964Z,77.48
2018-01-01T05:47:07.416Z,77.93
2018-01-01T05:49:34.884Z,78.87
2018-01-01T05:52:02.352Z,77.63
2018-01-01T05:54:29.808Z,77.61
2018-01-01T05:56:57.269Z,77.03
2018-01-01T05:59:24.749Z,76.47
2018-01-01T06:01:52.204Z,76.83
2018-01-01T06:04:19.661Z,77.63
2018-01-01T06:06:47.136Z,75.58
2018-01-01T06:09:14.588Z,75.81
2018-01-01T06:11:42.044Z,74.47
2018-01-01T06:14:09.521Z,75.37
2018-01-01T06:16:36.980Z,75.94
2018-01-01T06:19:04.440Z,76.09
2018-01-01T06:21:31.908Z,75.74
2018-01-01T06:23:59.360Z,75.92
2018-01-01T06:26:26.816Z,76.57
2018-01-01T06:28:54.284Z,76.76
2018-01-01T06:31:21.739Z,76.78
2018-01-01T06:33:49.204Z,77.08
2018-01-01T06:36:16.676Z,77.68
2018-01-01T06:38:44.128Z,77.86
2018-01-01T06:41:11.579Z,77.09
2018-01-01T06:43:39.048Z,76.82
2018-01-01T06:46:06.500Z,77.30
2018-01-01T06:48:33.956Z,77.21
2018-01-01T06:51:01.424Z,77.15
2018-01-01T06:53:28.880Z,76.33
2018-01-01T06:55:56.351Z,76.63
2018-01-01T06:58:23.804Z,76.04
2018-01-01T07:00:51.281Z,76.26
2018-01-01T07:03:18.742Z,75.76
2018-01-01T07:05:46.200Z,76.45
2018-01-01T07:08:13.672Z,76.20
2018-01-01T07:10:41.196Z,75.91
2018-01-01T07:13:08.676Z,75.54
2018-01-01T07:15:36.128Z,75.98
2018-01-01T07:18:03.600Z,75.40
2018-01-01T07:20:31.057Z,74.55
2018-01-01T07:22:58.509Z,74.06
2018-01-01T07:25:25.980Z,74.32
2018-01-01T07:27:53.436Z,74.17
2018-01-01T07:30:20.912Z,73.66
2018-01-01T07:32:48.368Z,73.91
2018-01-01T07:35:15.881Z,73.46
2018-01-01T07:37:43.347Z,73.42
2018-01-01T07:40:10.812Z,73.70
2018-01-01T07:42:38.289Z,72.89
2018-01-01T07:45:05.748Z,72.77
2018-01-01T07:47:33.215Z,72.26
2018-01-01T07:50:00.676Z,71.79
2018-01-01T07:52:28.152Z,71.04
2018-01-01T07:54:55.608Z,70.28
2018-01-01T07:57:23.065Z,70.72
2018-01-01T07:59:50.541Z,68.93
2018-01-01T08:02:18.008Z,69.72
2018-01-01T08:04:45.484Z,67.89
2018-01-01T08:07:12.943Z,68.01
2018-01-01T08:09:40.452Z,67.28
2018-01-01T08:12:07.928Z,66.87
2018-01-01T08:14:35.380Z,66.53
2018-01-01T08:17:02.832Z,66.90
2018-01-01T08:19:30.429Z,65.63
2018-01-01T08:21:57.879Z,66.09
2018-01-01T08:24:25.356Z,65.71
2018-01-01T08:26:52.824Z,64.78
2018-01-01T08:29:20.364Z,64.95
2018-01-01T08:31:47.816Z,65.00
2018-01-01T08:34:15.297Z,64.66
2018-01-01T08:36:42.752Z,63.75
2018-01-01T08:39:10.207Z,64.06
2018-01-01T08:41:37.684Z,63.66
2018-01-01T08:44:05.140Z,62.39
2018-01-01T08:46:32.600Z,62.93
2018-01-01T08:49:00.082Z,62.37
2018-01-01T08:51:27.580Z,62.27
2018-01-01T08:53:55.145Z,61.81
2018-01-01T08:56:22.620Z,62.35
2018-01-01T08:58:50.092Z,61.95
2018-01-01T09:01:17.551Z,61.50
2018-01-01T09:03:45.020Z,60.69
2018-01-01T09:06:12.476Z,61.06
2018-01-01T09:08:39.936Z,61.12
2018-01-01T09:11:07.408Z,60.93
2018-01-01T09:13:34.860Z,60.83
2018-01-01T09:16:02.334Z,61.09
2018-01-01T09:18:29.803Z,61.50
2018-01-01T09:20:57.258Z,61.04
2018-01-01T09:23:24.709Z,62.17
2018-01-01T09:25:52.184Z,61.97
2018-01-01T09:28:19.655Z,62.21
2018-01-01T09:30:47.215Z,62.22
2018-01-01T09:33:15.036Z,62.37
2018-01-01T09:35:42.501Z,62.84
2018-01-01T09:38:09.995Z,62.43
2018-01-01T09:40:37.466Z,62.74
2018-01-01T09:43:04.918Z,63.05
2018-01-01T09:45:32.389Z,63.35
2018-01-01T09:47:59.840Z,63.75
2018-01-01T09:50:27.308Z,63.39
2018-01-01T09:52:54.761Z,63.15
2018-01-01T09:55:22.216Z,63.90
2018-01-01T09:57:49.754Z,63.95
2018-01-01T10:00:17.316Z,63.56
2018-01-01T10:02:44.793Z,63.78
2018-01-01T10:05:12.288Z,63.48
2018-01-01T10:07:39.789Z,63.96
2018-01-01T10:10:07.248Z,63.24
2018-01-01T10:12:34.964Z,63.19
2018-01-01T10:15:02.440Z,63.11
2018-01-01T10:17:29.901Z,63.08
2018-01-01T10:19:57.376Z,62.96
2018-01-01T10:22:24.843Z,62.41
2018-01-01T10:24:52.304Z,62.38
2018-01-01T10:27:19.780Z,62.39
2018-01-01T10:29:47.281Z,62.63
2018-01-01T10:32:14.756Z,62.50
2018-01-01T10:34:42.396Z,62.40
2018-01-01T10:37:09.889Z,62.15
2018-01-01T10:39:37.364Z,62.93
2018-01-01T10:42:04.905Z,62.90
2018-01-01T10:44:32.372Z,62.82
2018-01-01T10:46:59.854Z,63.08
2018-01-01T10:49:27.433Z,63.05
2018-01-01T10:51:54.887Z,62.90
2018-01-01T10:54:22.452Z,62.73
2018-01-01T10:56:49.909Z,62.55
2018-01-01T10:59:17.391Z,62.63
2018-01-01T11:01:44.897Z,62.63
2018-01-01T11:04:12.356Z,62.64
2018-01-01T11:06:39.844Z,63.18
2018-01-01T11:09:07.369Z,62.74
2018-01-01T11:11:34.819Z,62.07
2018-01-01T11:14:02.496Z,61.93
2018-01-01T11:16:29.964Z,61.95
2018-01-01T11:18:57.416Z,61.14
2018-01-01T11:21:24.891Z,61.34
2018-01-01T11:23:52.388Z,61.30
2018-01-01T11:26:19.840Z,60.67
2018-01-01T11:28:47.292Z,60.73
2018-01-01T11:31:14.764Z,59.97
2018-01-01T11:33:42.432Z,59.41
2018-01-01T11:36:09.901Z,59.64
2018-01-01T11:38:37.372Z,59.88
2018-01-01T11:41:04.836Z,60.34
2018-01-01T11:43:32.292Z,60.07
2018-01-01T11:45:59.760Z,60.15
2018-01-01T11:48:27.216Z,60.52
2018-01-01T11:50:54.774Z,60.44
2018-01-01T11:53:22.248Z,59.87
2018-01-01T11:55:49.718Z,58.61
2018-01-01T11:58:17.172Z,58.83
2018-01-01T12:00:44.632Z,57.30
2018-01-01T12:03:12.100Z,57.02
2018-01-01T12:05:39.557Z,58.24
2018-01-01T12:08:07.070Z,58.54
2018-01-01T12:10:34.544Z,58.23
2018-01-01T12:13:02.016Z,58.01
2018-01-01T12:15:29.473Z,57.03
2018-01-01T12:17:56.930Z,56.83
2018-01-01T12:20:24.404Z,55.72
2018-01-01T12:22:51.861Z,55.29
2018-01-01T12:25:19.336Z,54.60
2018-01-01T12:27:46.792Z,55.29
2018-01-01T12:30:14.278Z,55.30
2018-01-01T12:32:41.727Z,55.75
2018-01-01T12:35:09.179Z,55.03
2018-01-01T12:37:36.655Z,55.69
2018-01-01T12:40:04.108Z,55.90
2018-01-01T12:42:31.585Z,55.82
2018-01-01T12:44:59.040Z,55.40
2018-01-01T12:47:26.516Z,56.15
2018-01-01T12:49:53.972Z,56.48
2018-01-01T12:52:21.433Z,56.75
2018-01-01T12:54:48.920Z,57.14
2018-01-01T12:57:16.384Z,56.72
2018-01-01T12:59:43.860Z,56.79
2018-01-01T13:02:11.317Z,56.01
2018-01-01T13:04:38.790Z,55.35
2018-01-01T13:07:06.242Z,55.16
2018-01-01T13:09:33.693Z,55.07
2018-01-01T13:12:01.185Z,55.28
2018-01-01T13:14:28.636Z,54.90
2018-01-01T13:16:56.112Z,54.33
2018-01-01T13:19:23.632Z,54.93
2018-01-01T13:21:51.088Z,54.62
2018-01-01T13:24:18.556Z,54.63
2018-01-01T13:26:46.017Z,54.75
2018-01-01T13:29:13.480Z,54.45
2018-01-01T13:31:40.961Z,54.59
2018-01-01T13:34:08.416Z,53.69
2018-01-01T13:36:35.873Z,54.20
2018-01-01T13:39:03.349Z,53.99
2018-01-01T13:41:30.803Z,53.48
2018-01-01T13:43:58.256Z,53.28
2018-01-01T13:46:25.764Z,53.51
2018-01-01T13:48:53.324Z,53.75
2018-01-01T13:51:20.776Z,53.46
2018-01-01T13:53:48.248Z,53.36
2018-01-01T13:56:15.704Z,53.82
2018-01-01T13:58:43.164Z,52.72
2018-01-01T14:01:10.636Z,53.22
2018-01-01T14:03:38.088Z,51.59
2018-01-01T14:06:05.544Z,52.40
2018-01-01T14:08:33.020Z,51.90
2018-01-01T14:11:00.472Z,50.77
2018-01-01T14:13:27.919Z,51.44
2018-01-01T14:15:55.393Z,51.42
2018-01-01T14:18:22.849Z,51.25
2018-01-01T14:20:50.308Z,51.33
2018-01-01T14:23:17.776Z,50.60
2018-01-01T14:25:45.231Z,50.89
2018-01-01T14:28:12.704Z,50.91
2018-01-01T14:30:40.160Z,51.16
2018-01-01T14:33:07.627Z,51.29
2018-01-01T14:35:35.096Z,50.52
2018-01-01T14:38:02.560Z,51.08
2018-01-01T14:40:30.032Z,50.91
2018-01-01T14:42:57.484Z,51.37
2018-01-01T14:45:24.952Z,50.99
2018-01-01T14:47:52.412Z,51.31
2018-01-01T14:50:19.888Z,51.42
2018-01-01T14:52:47.340Z,51.39
2018-01-01T14:55:14.796Z,52.02
2018-01-01T14:57:42.271Z,52.29
2018-01-01T15:00:09.728Z,52.36
2018-01-01T15:02:37.201Z,52.38
2018-01-01T15:05:04.652Z,53.28
2018-01-01T15:07:32.160Z,54.00
2018-01-01T15:09:59.624Z,54.44
2018-01-01T15:12:27.081Z,54.56
2018-01-01T15:14:54.564Z,55.08
2018-01-01T15:17:22.035Z,55.71
2018-01-01T15:19:49.512Z,55.52
2018-01-01T15:22:16.980Z,56.16
2018-01-01T15:24:44.478Z,56.67
2018-01-01T15:27:11.936Z,56.58
2018-01-01T15:29:39.413Z,57.23
2018-01-01T15:32:06.896Z,57.72
2018-01-01T15:34:34.360Z,58.08
2018-01-01T15:37:01.825Z,58.42
2018-01-01T15:39:29.357Z,59.06
2018-01-01T15:41:56.935Z,59.66
2018-01-01T15:44:24.672Z,60.37
2018-01-01T15:46:52.150Z,61.39
2018-01-01T15:49:19.599Z,61.59
2018-01-01T15:51:47.060Z,62.14
2018-01-01T15:54:15.469Z,62.62
2018-01-01T15:56:42.943Z,62.97
2018-01-01T15:59:10.409Z,63.19
2018-01-01T16:01:37.904Z,63.08
2018-01-01T16:04:05.368Z,63.42
2018-01-01T16:06:33.049Z,63.69
2018-01-01T16:09:01.057Z,63.91
2018-01-01T16:11:28.520Z,64.46
2018-01-01T16:13:56.075Z,65.86
2018-01-01T16:16:23.556Z,66.32
2018-01-01T16:18:51.020Z,68.46
2018-01-01T16:21:18.552Z,70.53
2018-01-01T16:23:46.052Z,70.62
2018-01-01T16:26:13.520Z,69.81
2018-01-01T16:28:41.028Z,69.19
2018-01-01T16:31:08.520Z,68.85
2018-01-01T16:33:36.004Z,68.64
2018-01-01T16:36:03.498Z,68.34
2018-01-01T16:38:30.983Z,68.14
2018-01-01T16:40:58.476Z,68.70
2018-01-01T16:43:25.938Z,69.04
2018-01-01T16:45:53.430Z,69.08
2018-01-01T16:48:20.884Z,68.23
2018-01-01T16:50:48.364Z,68.15
2018-01-01T16:53:15.824Z,68.58
2018-01-01T16:55:43.288Z,68.67
2018-01-01T16:58:11.603Z,68.81
2018-01-01T17:00:39.172Z,68.88
2018-01-01T17:03:06.653Z,69.41
2018-01-01T17:05:34.108Z,69.88
2018-01-01T17:08:01.584Z,69.91
2018-01-01T17:10:29.088Z,70.29
2018-01-01T17:12:56.620Z,70.46
2018-01-01T17:15:24.252Z,70.93
2018-01-01T17:17:51.871Z,71.23
2018-01-01T17:20:19.480Z,71.82
2018-01-01T17:22:47.050Z,72.38
2018-01-01T17:25:14.633Z,72.62
2018-01-01T17:27:42.268Z,72.91
2018-01-01T17:30:09.816Z,73.10
2018-01-01T17:32:37.476Z,73.55
2018-01-01T17:35:05.108Z,73.90
2018-01-01T17:37:32.568Z,74.02
2018-01-01T17:40:00.060Z,74.50
2018-01-01T17:42:27.548Z,74.38
2018-01-01T17:44:55.069Z,74.48
2018-01-01T17:47:22.538Z,74.42
2018-01-01T17:49:50.016Z,74.73
2018-01-01T17:52:17.476Z,74.73
2018-01-01T17:54:44.940Z,74.60
2018-01-01T17:57:12.420Z,74.88
2018-01-01T17:59:39.888Z,74.61
2018-01-01T18:02:07.352Z,73.98
2018-01-01T18:04:34.849Z,73.72
2018-01-01T18:07:02.320Z,73.83
2018-01-01T18:09:29.780Z,73.89
2018-01-01T18:11:57.256Z,73.79
2018-01-01T18:14:24.761Z,73.74
2018-01-01T18:16:52.229Z,73.88
2018-01-01T18:19:19.812Z,74.02
2018-01-01T18:21:47.272Z,74.47
2018-01-01T18:24:14.733Z,74.13
2018-01-01T18:26:42.212Z,74.54
2018-01-01T18:29:09.694Z,75.06
2018-01-01T18:31:37.173Z,75.17
2018-01-01T18:34:04.728Z,75.46
2018-01-01T18:36:32.600Z,75.62
2018-01-01T18:39:00.127Z,75.97
2018-01-01T18:41:27.596Z,76.20
2018-01-01T18:43:55.075Z,76.61
2018-01-01T18:46:22.538Z,76.78
2018-01-01T18:48:50.039Z,76.88
2018-01-01T18:51:17.496Z,77.18
2018-01-01T18:53:44.976Z,76.93
2018-01-01T18:56:12.439Z,76.87
2018-01-01T18:58:39.896Z,76.84
2018-01-01T19:01:07.380Z,76.68
2018-01-01T19:03:34.840Z,76.73
2018-01-01T19:06:02.319Z,76.58
2018-01-01T19:08:29.796Z,76.28
2018-01-01T19:10:57.303Z,76.07
2018-01-01T19:13:24.768Z,75.81
2018-01-01T19:15:52.321Z,75.75
2018-01-01T19:18:19.800Z,75.89
2018-01-01T19:20:47.277Z,76.13
2018-01-01T19:23:14.768Z,76.07
2018-01-01T19:25:42.233Z,75.91
2018-01-01T19:28:09.735Z,75.90
2018-01-01T19:30:37.214Z,76.12
2018-01-01T19:33:04.672Z,75.91
2018-01-01T19:35:35.106Z,75.70
2018-01-01T19:38:02.900Z,75.90
2018-01-01T19:40:30.811Z,76.01
2018-01-01T19:43:00.138Z,75.91
2018-01-01T19:45:31.755Z,75.94
2018-01-01T19:48:02.966Z,77.15
2018-01-01T19:50:33.302Z,75.88
2018-01-01T19:53:04.270Z,76.00
2018-01-01T19:55:34.703Z,75.27
2018-01-01T19:58:03.794Z,73.30
2018-01-01T20:00:32.903Z,73.48
2018-01-01T20:03:00.440Z,73.22
2018-01-01T20:05:27.900Z,72.59
2018-01-01T20:07:55.376Z,72.32
2018-01-01T20:10:22.873Z,70.88
2018-01-01T20:12:51.410Z,71.00
2018-01-01T20:15:18.900Z,70.13
2018-01-01T20:17:47.207Z,71.78
2018-01-01T20:20:14.673Z,71.86
2018-01-01T20:22:42.202Z,71.13
2018-01-01T20:25:10.598Z,73.60
2018-01-01T20:27:38.175Z,73.60
2018-01-01T20:30:06.654Z,74.84
2018-01-01T20:32:35.285Z,75.56
2018-01-01T20:35:02.800Z,76.53
2018-01-01T20:37:30.280Z,77.67
2018-01-01T20:39:57.822Z,77.41
2018-01-01T20:42:25.284Z,78.07
2018-01-01T20:44:52.764Z,77.90
2018-01-01T20:47:20.236Z,78.57
2018-01-01T20:49:47.716Z,78.13
2018-01-01T20:52:15.193Z,78.59
2018-01-01T20:54:42.672Z,79.22
2018-01-01T20:57:10.140Z,78.60
2018-01-01T20:59:37.612Z,78.31
2018-01-01T21:02:05.104Z,78.27
2018-01-01T21:04:32.570Z,79.29
2018-01-01T21:07:00.132Z,79.99
2018-01-01T21:09:27.617Z,79.59
2018-01-01T21:11:55.176Z,77.90
2018-01-01T21:14:22.656Z,78.39
2018-01-01T21:16:50.116Z,79.95
2018-01-01T21:19:20.096Z,79.66
2018-01-01T21:21:47.724Z,79.27
2018-01-01T21:24:15.189Z,76.53
2018-01-01T21:26:42.660Z,74.47
2018-01-01T21:29:10.120Z,73.76
2018-01-01T21:31:37.593Z,72.29
2018-01-01T21:34:05.044Z,71.78
2018-01-01T21:36:32.504Z,70.82
2018-01-01T21:38:59.976Z,70.22
2018-01-01T21:41:27.432Z,69.78
2018-01-01T21:43:54.917Z,69.18
2018-01-01T21:46:22.380Z,68.13
2018-01-01T21:48:49.855Z,67.68
2018-01-01T21:51:17.312Z,66.97
2018-01-01T21:53:57.623Z,66.15
2018-01-01T21:56:25.176Z,65.67
2018-01-01T21:58:52.665Z,65.15
2018-01-01T22:01:20.193Z,65.39
2018-01-01T22:03:47.652Z,65.49
2018-01-01T22:06:15.105Z,65.50
2018-01-01T22:08:42.584Z,65.24
2018-01-01T22:11:11.036Z,64.60
2018-01-01T22:13:38.491Z,64.32
2018-01-01T22:16:05.968Z,63.71
2018-01-01T22:18:33.424Z,64.04
2018-01-01T22:21:00.880Z,62.54
2018-01-01T22:23:28.359Z,61.82
2018-01-01T22:25:55.816Z,61.48
2018-01-01T22:28:23.270Z,60.82
2018-01-01T22:30:50.748Z,59.72
2018-01-01T22:33:18.208Z,59.57
2018-01-01T22:35:45.683Z,60.14
2018-01-01T22:38:17.395Z,59.69
2018-01-01T22:40:44.964Z,59.66
2018-01-01T22:43:12.420Z,59.34
2018-01-01T22:45:39.896Z,59.28
2018-01-01T22:48:07.349Z,59.31
2018-01-01T22:50:34.804Z,59.14
2018-01-01T22:53:02.688Z,58.80
2018-01-01T22:55:30.140Z,59.60
2018-01-01T22:57:57.592Z,59.76
2018-01-01T23:00:25.076Z,60.47
2018-01-01T23:02:52.528Z,60.75
2018-01-01T23:05:20.005Z,60.49
2018-01-01T23:07:47.461Z,60.53
2018-01-01T23:10:16.137Z,60.93
2018-01-01T23:12:43.612Z,60.58
2018-01-01T23:15:11.068Z,60.48
2018-01-01T23:17:38.639Z,61.17
2018-01-01T23:20:06.095Z,60.41
2018-01-01T23:22:34.164Z,60.66
2018-01-01T23:25:01.657Z,60.45
2018-01-01T23:27:29.104Z,60.70
2018-01-01T23:29:56.572Z,60.81
2018-01-01T23:32:24.020Z,61.30
2018-01-01T23:34:51.491Z,61.73
2018-01-01T23:37:18.940Z,61.84
2018-01-01T23:39:46.432Z,62.61
2018-01-01T23:42:13.892Z,63.34
2018-01-01T23:44:41.340Z,63.22
2018-01-01T23:47:08.842Z,63.10
2018-01-01T23:49:36.292Z,63.46
2018-01-01T23:52:03.759Z,63.87
2018-01-01T23:54:31.216Z,63.98
2018-01-01T23:56:58.689Z,63.55
2018-01-01T23:59:26.148Z,63.88
